createdAt,value
2023-04-16T00:00:28.282Z,41.60
2023-04-16T00:02:56.602Z,37.40
2023-04-16T00:05:24.567Z,40.30
2023-04-16T00:07:52.829Z,40.27
2023-04-16T00:10:20.838Z,38.77
2023-04-16T00:12:49.209Z,40.57
2023-04-16T00:15:16.870Z,42.10
2023-04-16T00:17:46.076Z,47.80
2023-04-16T00:20:14.234Z,39.90
2023-04-16T00:22:42.340Z,37.57
2023-04-16T00:25:10.730Z,37.83
2023-04-16T00:27:38.777Z,36.00
2023-04-16T00:30:07.331Z,40.10
2023-04-16T00:32:35.206Z,37.90
2023-04-16T00:35:05.349Z,39.40
2023-04-16T00:37:33.280Z,41.63
2023-04-16T00:40:01.215Z,40.63
2023-04-16T00:42:29.318Z,38.57
2023-04-16T00:44:57.018Z,38.37
2023-04-16T00:47:24.870Z,39.27
2023-04-16T00:49:53.966Z,38.67
2023-04-16T00:52:23.099Z,39.00
2023-04-16T00:54:52.692Z,37.00
2023-04-16T00:57:24.062Z,41.67
2023-04-16T00:59:52.436Z,38.93
2023-04-16T01:02:20.525Z,41.87
2023-04-16T01:04:51.883Z,44.70
2023-04-16T01:07:19.768Z,40.80
2023-04-16T01:09:48.801Z,40.03
2023-04-16T01:12:17.021Z,39.80
2023-04-16T01:14:44.888Z,41.07
2023-04-16T01:17:12.740Z,40.60
2023-04-16T01:19:40.904Z,39.27
2023-04-16T01:22:10.250Z,40.53
2023-04-16T01:24:40.552Z,41.13
2023-04-16T01:27:11.368Z,44.60
2023-04-16T01:29:39.261Z,41.90
2023-04-16T01:32:07.268Z,42.23
2023-04-16T01:34:37.677Z,38.00
2023-04-16T01:37:06.190Z,42.60
2023-04-16T01:39:35.731Z,39.33
2023-04-16T01:42:03.494Z,41.20
2023-04-16T01:44:32.038Z,41.67
2023-04-16T01:47:00.383Z,40.57
2023-04-16T01:49:28.322Z,38.70
2023-04-16T01:51:56.330Z,41.57
2023-04-16T01:54:25.511Z,40.10
2023-04-16T01:56:54.706Z,39.50
2023-04-16T01:59:22.829Z,40.70
2023-04-16T02:01:51.239Z,40.27
2023-04-16T02:04:18.986Z,37.53
2023-04-16T02:06:46.944Z,37.13
2023-04-16T02:09:15.400Z,39.77
2023-04-16T02:11:44.009Z,36.97
2023-04-16T02:14:13.308Z,37.77
2023-04-16T02:16:41.167Z,38.63
2023-04-16T02:19:31.941Z,38.30
2023-04-16T02:22:01.393Z,37.77
2023-04-16T02:24:29.081Z,39.37
2023-04-16T02:26:58.166Z,35.73
2023-04-16T02:29:27.322Z,37.17
2023-04-16T02:32:03.088Z,35.00
2023-04-16T02:34:34.699Z,38.03
2023-04-16T02:37:02.501Z,37.17
2023-04-16T02:39:30.240Z,38.23
2023-04-16T02:41:59.513Z,36.70
2023-04-16T02:44:29.182Z,42.50
2023-04-16T02:46:57.171Z,34.87
2023-04-16T02:49:25.044Z,38.40
2023-04-16T02:51:52.807Z,36.57
2023-04-16T02:54:20.558Z,40.10
2023-04-16T02:56:48.607Z,39.80
2023-04-16T02:59:16.646Z,37.77
2023-04-16T03:01:45.811Z,39.13
2023-04-16T03:04:13.949Z,40.10
2023-04-16T03:06:41.896Z,39.90
2023-04-16T03:09:09.919Z,40.97
2023-04-16T03:11:39.475Z,42.27
2023-04-16T03:14:07.307Z,43.00
2023-04-16T03:16:34.985Z,41.37
2023-04-16T03:19:04.282Z,41.33
2023-04-16T03:21:32.274Z,43.77
2023-04-16T03:24:00.218Z,44.20
2023-04-16T03:26:28.187Z,44.70
2023-04-16T03:28:56.625Z,43.83
2023-04-16T03:31:24.866Z,44.37
2023-04-16T03:33:53.419Z,44.10
2023-04-16T03:36:23.299Z,46.00
2023-04-16T03:38:51.166Z,44.53
2023-04-16T03:41:19.101Z,45.03
2023-04-16T03:43:46.869Z,45.33
2023-04-16T03:46:14.570Z,47.63
2023-04-16T03:48:42.457Z,46.20
2023-04-16T03:51:10.413Z,47.83
2023-04-16T03:53:41.277Z,47.30
2023-04-16T03:56:09.486Z,48.60
2023-04-16T03:58:37.265Z,45.73
2023-04-16T04:01:05.396Z,42.70
2023-04-16T04:03:33.492Z,44.60
2023-04-16T04:06:07.537Z,46.00
2023-04-16T04:08:35.646Z,44.33
2023-04-16T04:11:06.466Z,44.17
2023-04-16T04:13:36.041Z,45.23
2023-04-16T04:16:04.880Z,44.37
2023-04-16T04:18:33.313Z,45.27
2023-04-16T04:21:01.873Z,46.37
2023-04-16T04:23:31.181Z,43.27
2023-04-16T04:25:59.410Z,43.17
2023-04-16T04:28:28.653Z,43.73
2023-04-16T04:30:56.471Z,46.03
2023-04-16T04:33:24.259Z,44.73
2023-04-16T04:35:55.898Z,43.77
2023-04-16T04:38:25.245Z,43.27
2023-04-16T04:40:53.614Z,42.60
2023-04-16T04:43:22.818Z,45.53
2023-04-16T04:45:52.670Z,45.60
2023-04-16T04:48:26.453Z,42.70
2023-04-16T04:50:54.973Z,44.87
2023-04-16T04:53:22.701Z,46.37
2023-04-16T04:55:53.148Z,43.83
2023-04-16T04:58:23.629Z,43.53
2023-04-16T05:00:53.811Z,42.90
2023-04-16T05:03:44.664Z,41.60
2023-04-16T05:06:12.652Z,43.83
2023-04-16T05:08:40.365Z,45.40
2023-04-16T05:11:08.404Z,44.80
2023-04-16T05:13:36.067Z,45.40
2023-04-16T05:16:06.221Z,44.33
2023-04-16T05:18:34.394Z,44.30
2023-04-16T05:21:02.055Z,46.60
2023-04-16T05:23:29.780Z,44.43
2023-04-16T05:25:57.666Z,44.87
2023-04-16T05:28:25.604Z,42.90
2023-04-16T05:30:53.610Z,39.10
2023-04-16T05:33:22.857Z,40.50
2023-04-16T05:35:50.645Z,35.47
2023-04-16T05:38:18.521Z,38.50
2023-04-16T05:40:46.345Z,40.53
2023-04-16T05:43:14.087Z,40.13
2023-04-16T05:45:41.883Z,38.37
2023-04-16T05:48:10.179Z,39.40
2023-04-16T05:50:39.614Z,38.30
2023-04-16T05:53:08.347Z,39.13
2023-04-16T05:55:36.802Z,40.53
2023-04-16T05:58:05.106Z,39.30
2023-04-16T06:00:33.195Z,38.53
2023-04-16T06:03:01.494Z,39.57
2023-04-16T06:05:29.965Z,41.07
2023-04-16T06:07:59.219Z,40.40
2023-04-16T06:10:27.304Z,36.47
2023-04-16T06:12:55.195Z,39.07
2023-04-16T06:15:22.920Z,39.03
2023-04-16T06:17:50.926Z,37.60
2023-04-16T06:20:19.068Z,39.50
2023-04-16T06:22:46.929Z,37.23
2023-04-16T06:25:18.103Z,38.07
2023-04-16T06:27:46.134Z,38.47
2023-04-16T06:30:14.619Z,37.13
2023-04-16T06:32:43.413Z,39.23
2023-04-16T06:35:11.248Z,39.60
2023-04-16T06:37:38.988Z,37.57
2023-04-16T06:40:07.253Z,34.43
2023-04-16T06:42:36.505Z,34.50
2023-04-16T06:45:04.596Z,34.50
2023-04-16T06:47:32.818Z,35.03
2023-04-16T06:50:00.622Z,36.77
2023-04-16T06:52:29.792Z,35.00
2023-04-16T06:54:57.625Z,35.17
2023-04-16T06:57:25.421Z,33.90
2023-04-16T06:59:54.589Z,35.47
2023-04-16T07:02:22.839Z,33.90
2023-04-16T07:04:52.260Z,34.40
2023-04-16T07:07:20.122Z,36.10
2023-04-16T07:09:47.937Z,35.33
2023-04-16T07:12:15.894Z,33.80
2023-04-16T07:14:43.578Z,37.93
2023-04-16T07:17:12.967Z,36.10
2023-04-16T07:19:41.027Z,34.90
2023-04-16T07:22:09.032Z,33.60
2023-04-16T07:24:37.214Z,34.37
2023-04-16T07:27:05.127Z,31.70
2023-04-16T07:29:33.204Z,31.80
2023-04-16T07:32:01.541Z,37.20
2023-04-16T07:34:30.998Z,34.80
2023-04-16T07:36:58.936Z,32.43
2023-04-16T07:39:26.891Z,36.47
2023-04-16T07:41:54.835Z,35.63
2023-04-16T07:44:22.502Z,35.73
2023-04-16T07:46:50.556Z,33.60
2023-04-16T07:49:18.779Z,35.27
2023-04-16T07:51:48.096Z,34.17
2023-04-16T07:54:16.514Z,32.30
2023-04-16T07:56:44.209Z,33.90
2023-04-16T07:59:21.940Z,35.40
2023-04-16T08:01:51.107Z,33.90
2023-04-16T08:04:24.347Z,33.40
2023-04-16T08:06:54.474Z,29.70
2023-04-16T08:09:24.036Z,31.10
2023-04-16T08:11:52.165Z,32.43
2023-04-16T08:14:19.979Z,34.03
2023-04-16T08:16:47.701Z,34.07
2023-04-16T08:19:15.486Z,32.97
2023-04-16T08:21:43.891Z,40.60
2023-04-16T08:24:12.898Z,36.50
2023-04-16T08:26:41.089Z,34.97
2023-04-16T08:29:09.157Z,34.80
2023-04-16T08:31:37.199Z,32.97
2023-04-16T08:34:04.935Z,33.60
2023-04-16T08:36:33.249Z,32.73
2023-04-16T08:39:01.342Z,30.33
2023-04-16T08:41:31.996Z,31.00
2023-04-16T08:44:01.530Z,29.17
2023-04-16T08:46:30.706Z,32.30
2023-04-16T08:49:00.036Z,33.80
2023-04-16T08:51:31.116Z,32.93
2023-04-16T08:54:01.020Z,34.10
2023-04-16T08:56:31.001Z,31.53
2023-04-16T08:59:02.166Z,31.30
2023-04-16T09:01:30.462Z,32.77
2023-04-16T09:03:58.353Z,38.70
2023-04-16T09:06:26.882Z,31.97
2023-04-16T09:08:55.275Z,30.03
2023-04-16T09:11:23.098Z,31.93
2023-04-16T09:13:52.872Z,31.97
2023-04-16T09:16:21.557Z,32.53
2023-04-16T09:18:52.300Z,32.57
2023-04-16T09:21:22.732Z,32.20
2023-04-16T09:23:53.965Z,36.90
2023-04-16T09:26:22.161Z,41.40
2023-04-16T09:28:50.945Z,57.03
2023-04-16T09:31:21.017Z,43.47
2023-04-16T09:34:02.749Z,35.20
2023-04-16T09:36:31.205Z,37.30
2023-04-16T09:38:59.252Z,31.63
2023-04-16T09:41:28.316Z,34.03
2023-04-16T09:43:57.446Z,32.30
2023-04-16T09:46:30.818Z,31.07
2023-04-16T09:48:58.824Z,39.73
2023-04-16T09:51:28.302Z,31.70
2023-04-16T09:54:00.166Z,33.67
2023-04-16T09:56:28.993Z,31.40
2023-04-16T09:59:01.516Z,38.63
2023-04-16T10:01:31.812Z,39.47
2023-04-16T10:04:01.624Z,36.33
2023-04-16T10:06:30.171Z,33.80
2023-04-16T10:08:58.134Z,35.13
2023-04-16T10:11:26.408Z,35.30
2023-04-16T10:13:54.258Z,34.83
2023-04-16T10:16:23.065Z,37.17
2023-04-16T10:18:53.000Z,41.50
2023-04-16T10:21:21.936Z,41.27
2023-04-16T10:23:49.776Z,42.00
2023-04-16T10:26:18.780Z,31.93
2023-04-16T10:28:46.788Z,29.67
2023-04-16T10:31:14.966Z,35.47
2023-04-16T10:33:43.127Z,32.87
2023-04-16T10:36:13.378Z,32.93
2023-04-16T10:38:41.802Z,33.53
2023-04-16T10:41:09.899Z,37.47
2023-04-16T10:43:41.921Z,37.00
2023-04-16T10:46:19.978Z,31.30
2023-04-16T10:48:53.965Z,33.60
2023-04-16T10:51:28.021Z,35.50
2023-04-16T10:53:56.737Z,35.47
2023-04-16T10:56:25.006Z,36.87
2023-04-16T10:58:54.227Z,38.30
2023-04-16T11:01:27.635Z,37.67
2023-04-16T11:03:55.648Z,53.77
2023-04-16T11:06:26.909Z,40.17
2023-04-16T11:08:55.498Z,37.20
2023-04-16T11:11:23.329Z,33.50
2023-04-16T11:13:55.820Z,44.87
2023-04-16T11:16:23.613Z,35.03
2023-04-16T11:18:51.887Z,33.90
2023-04-16T11:21:20.532Z,34.17
2023-04-16T11:23:50.547Z,35.97
2023-04-16T11:26:24.950Z,48.03
2023-04-16T11:28:52.900Z,47.33
2023-04-16T11:31:20.654Z,34.87
2023-04-16T11:33:49.570Z,30.00
2023-04-16T11:36:17.807Z,33.23
2023-04-16T11:38:45.820Z,36.10
2023-04-16T11:41:21.998Z,35.53
2023-04-16T11:43:49.878Z,31.53
2023-04-16T11:46:27.037Z,32.20
2023-04-16T11:48:56.734Z,29.40
2023-04-16T11:51:24.757Z,28.20
2023-04-16T11:53:53.508Z,28.20
2023-04-16T11:56:29.614Z,27.57
2023-04-16T11:59:10.143Z,27.80
2023-04-16T12:01:40.087Z,27.97
2023-04-16T12:04:08.253Z,27.37
2023-04-16T12:06:36.467Z,33.57
2023-04-16T12:09:19.752Z,32.70
2023-04-16T12:11:48.906Z,27.37
2023-04-16T12:14:17.132Z,27.40
2023-04-16T12:16:45.118Z,27.33
2023-04-16T12:19:13.801Z,28.53
2023-04-16T12:21:42.157Z,38.70
2023-04-16T12:24:13.203Z,26.63
2023-04-16T12:26:41.558Z,26.33
2023-04-16T12:29:17.369Z,27.47
2023-04-16T12:31:45.253Z,28.10
2023-04-16T12:34:15.219Z,28.70
2023-04-16T12:36:43.247Z,28.07
2023-04-16T12:39:11.986Z,24.63
2023-04-16T12:41:40.600Z,33.50
2023-04-16T12:44:12.091Z,24.53
2023-04-16T12:46:41.839Z,23.13
2023-04-16T12:49:10.300Z,23.10
2023-04-16T12:51:38.973Z,21.93
2023-04-16T12:54:07.424Z,23.97
2023-04-16T12:56:35.457Z,23.70
2023-04-16T12:59:03.507Z,24.50
2023-04-16T13:01:31.422Z,26.30
2023-04-16T13:04:02.013Z,27.17
2023-04-16T13:06:30.167Z,32.70
2023-04-16T13:08:57.992Z,32.50
2023-04-16T13:11:26.115Z,22.20
2023-04-16T13:13:54.329Z,19.30
2023-04-16T13:16:22.521Z,24.33
2023-04-16T13:18:50.562Z,29.27
2023-04-16T13:21:19.861Z,22.00
2023-04-16T13:23:47.637Z,21.10
2023-04-16T13:26:16.310Z,22.87
2023-04-16T13:28:44.175Z,29.73
2023-04-16T13:31:11.966Z,29.03
2023-04-16T13:33:39.672Z,26.53
2023-04-16T13:36:07.983Z,26.13
2023-04-16T13:38:37.034Z,21.83
2023-04-16T13:41:05.985Z,23.07
2023-04-16T13:43:33.700Z,23.80
2023-04-16T13:46:01.914Z,25.97
2023-04-16T13:48:30.207Z,23.30
2023-04-16T13:50:57.964Z,23.10
2023-04-16T13:53:25.667Z,25.13
2023-04-16T13:55:54.766Z,22.70
2023-04-16T13:58:22.747Z,22.07
2023-04-16T14:00:50.438Z,21.47
2023-04-16T14:03:18.259Z,21.87
2023-04-16T14:05:46.165Z,22.00
2023-04-16T14:08:14.760Z,21.27
2023-04-16T14:10:42.510Z,22.23
2023-04-16T14:13:12.547Z,24.23
2023-04-16T14:15:40.573Z,26.70
2023-04-16T14:18:08.744Z,21.97
2023-04-16T14:20:37.061Z,23.60
2023-04-16T14:23:05.023Z,26.00
2023-04-16T14:25:33.091Z,26.73
2023-04-16T14:28:00.985Z,23.70
2023-04-16T14:30:30.154Z,22.23
2023-04-16T14:32:59.369Z,20.80
2023-04-16T14:35:27.536Z,19.90
2023-04-16T14:37:55.903Z,20.20
2023-04-16T14:40:23.680Z,19.93
2023-04-16T14:42:51.392Z,20.00
2023-04-16T14:45:19.270Z,19.97
2023-04-16T14:47:50.110Z,20.10
2023-04-16T14:50:17.962Z,19.17
2023-04-16T14:52:45.870Z,19.67
2023-04-16T14:55:14.413Z,18.77
2023-04-16T14:57:42.149Z,18.40
2023-04-16T15:00:11.610Z,18.63
2023-04-16T15:02:39.452Z,17.30
2023-04-16T15:05:10.456Z,18.00
2023-04-16T15:07:38.484Z,18.80
2023-04-16T15:10:06.772Z,18.93
2023-04-16T15:12:34.845Z,19.83
2023-04-16T15:15:03.093Z,19.07
2023-04-16T15:17:31.106Z,20.00
2023-04-16T15:19:59.656Z,20.50
2023-04-16T15:22:28.690Z,20.97
2023-04-16T15:24:56.401Z,19.47
2023-04-16T15:27:24.511Z,20.27
2023-04-16T15:29:53.858Z,20.43
2023-04-16T15:32:21.825Z,18.50
2023-04-16T15:34:49.685Z,19.20
2023-04-16T15:37:17.540Z,19.70
2023-04-16T15:39:47.068Z,20.77
2023-04-16T15:42:15.686Z,24.83
2023-04-16T15:44:43.423Z,22.27
2023-04-16T15:47:11.467Z,21.80
2023-04-16T15:49:39.188Z,22.03
2023-04-16T15:52:06.975Z,21.90
2023-04-16T15:54:34.767Z,21.30
2023-04-16T15:57:04.332Z,20.00
2023-04-16T15:59:32.617Z,20.90
2023-04-16T16:02:02.615Z,20.30
2023-04-16T16:04:30.540Z,20.77
2023-04-16T16:06:58.421Z,20.73
2023-04-16T16:09:26.941Z,21.20
2023-04-16T16:11:55.249Z,21.43
2023-04-16T16:14:24.408Z,20.17
2023-04-16T16:16:53.898Z,21.03
2023-04-16T16:19:21.710Z,23.40
2023-04-16T16:21:49.815Z,20.60
2023-04-16T16:24:17.537Z,19.47
2023-04-16T16:26:45.708Z,20.23
2023-04-16T16:29:13.421Z,21.60
2023-04-16T16:31:42.628Z,21.07
2023-04-16T16:34:17.104Z,19.43
2023-04-16T16:36:48.672Z,20.27
2023-04-16T16:39:17.392Z,19.10
2023-04-16T16:41:45.579Z,18.50
2023-04-16T16:44:13.287Z,18.77
2023-04-16T16:46:43.212Z,18.80
2023-04-16T16:49:11.555Z,19.33
2023-04-16T16:51:39.388Z,18.70
2023-04-16T16:54:08.017Z,19.47
2023-04-16T16:56:35.681Z,19.53
2023-04-16T16:59:04.030Z,19.97
2023-04-16T17:01:34.955Z,43.13
2023-04-16T17:04:04.373Z,27.53
2023-04-16T17:06:33.225Z,23.17
2023-04-16T17:09:01.396Z,22.57
2023-04-16T17:11:29.554Z,22.30
2023-04-16T17:13:57.246Z,29.90
2023-04-16T17:16:25.010Z,28.93
2023-04-16T17:18:53.699Z,21.13
2023-04-16T17:21:22.838Z,26.87
2023-04-16T17:23:51.288Z,23.60
2023-04-16T17:26:19.029Z,23.70
2023-04-16T17:28:46.859Z,21.47
2023-04-16T17:31:14.835Z,22.33
2023-04-16T17:33:42.537Z,22.67
2023-04-16T17:36:10.410Z,23.50
2023-04-16T17:38:40.802Z,23.80
2023-04-16T17:41:09.030Z,25.50
2023-04-16T17:43:36.737Z,22.10
2023-04-16T17:46:04.814Z,23.50
2023-04-16T17:48:32.713Z,22.00
2023-04-16T17:51:00.386Z,20.00
2023-04-16T17:53:29.248Z,20.20
2023-04-16T17:55:58.386Z,19.53
2023-04-16T17:58:26.870Z,19.27
2023-04-16T18:00:54.835Z,21.90
2023-04-16T18:03:22.770Z,19.60
2023-04-16T18:05:50.820Z,20.70
2023-04-16T18:08:19.071Z,20.67
2023-04-16T18:10:47.067Z,24.20
2023-04-16T18:13:16.216Z,22.17
2023-04-16T18:15:44.169Z,22.27
2023-04-16T18:18:11.952Z,23.33
2023-04-16T18:20:39.688Z,22.67
2023-04-16T18:23:07.790Z,23.30
2023-04-16T18:25:35.680Z,24.10
2023-04-16T18:28:05.111Z,22.27
2023-04-16T18:30:35.532Z,24.33
2023-04-16T18:35:34.049Z,21.00
2023-04-16T18:38:02.329Z,21.37
2023-04-16T18:40:30.375Z,23.43
2023-04-16T18:42:58.039Z,21.77
2023-04-16T18:47:58.709Z,23.87
2023-04-16T18:50:26.676Z,25.20
2023-04-16T18:52:54.312Z,23.80
2023-04-16T18:55:22.572Z,24.77
2023-04-16T18:57:50.302Z,28.67
2023-04-16T19:00:18.601Z,26.80
2023-04-16T19:02:46.597Z,25.33
2023-04-16T19:05:15.887Z,24.03
2023-04-16T19:07:43.594Z,23.60
2023-04-16T19:10:11.716Z,23.17
2023-04-16T19:12:40.212Z,24.20
2023-04-16T19:15:08.804Z,24.80
2023-04-16T19:17:39.668Z,24.53
2023-04-16T19:20:11.083Z,24.27
2023-04-16T19:22:43.262Z,23.90
2023-04-16T19:25:11.308Z,24.97
2023-04-16T19:27:39.777Z,25.63
2023-04-16T19:30:08.786Z,24.63
2023-04-16T19:32:36.768Z,25.13
2023-04-16T19:35:05.197Z,26.53
2023-04-16T19:37:33.062Z,25.40
2023-04-16T19:40:02.233Z,23.67
2023-04-16T19:42:30.220Z,26.50
2023-04-16T19:44:58.056Z,26.17
2023-04-16T19:47:25.817Z,28.73
2023-04-16T19:49:53.590Z,26.37
2023-04-16T19:52:21.344Z,25.87
2023-04-16T19:54:49.109Z,25.83
2023-04-16T19:57:18.221Z,27.23
2023-04-16T19:59:46.152Z,24.97
2023-04-16T20:02:13.827Z,30.20
2023-04-16T20:04:41.851Z,25.50
2023-04-16T20:07:09.568Z,27.77
2023-04-16T20:09:37.398Z,25.03
2023-04-16T20:12:05.373Z,24.17
2023-04-16T20:14:34.981Z,24.83
2023-04-16T20:17:02.762Z,24.67
2023-04-16T20:19:34.403Z,23.47
2023-04-16T20:22:02.097Z,26.27
2023-04-16T20:24:31.024Z,25.13
2023-04-16T20:26:58.742Z,25.27
2023-04-16T20:29:26.994Z,22.87
2023-04-16T20:31:56.018Z,24.00
2023-04-16T20:34:25.094Z,23.43
2023-04-16T20:36:54.854Z,24.87
2023-04-16T20:39:24.436Z,24.13
2023-04-16T20:41:56.789Z,25.70
2023-04-16T20:44:26.110Z,25.60
2023-04-16T20:46:54.805Z,26.47
2023-04-16T20:49:25.063Z,23.43
2023-04-16T20:51:52.853Z,22.40
2023-04-16T20:54:20.773Z,23.60
2023-04-16T20:56:50.915Z,23.73
2023-04-16T20:59:18.640Z,24.70
2023-04-16T21:01:47.452Z,22.57
2023-04-16T21:04:15.748Z,24.40
2023-04-16T21:06:44.938Z,23.20
2023-04-16T21:09:13.140Z,23.60
2023-04-16T21:11:41.524Z,22.07
2023-04-16T21:14:09.435Z,24.90
2023-04-16T21:16:37.246Z,24.13
2023-04-16T21:19:04.984Z,22.93
2023-04-16T21:21:32.987Z,25.43
2023-04-16T21:24:03.675Z,24.33
2023-04-16T21:26:31.569Z,25.23
2023-04-16T21:28:59.528Z,21.80
2023-04-16T21:31:27.692Z,22.93
2023-04-16T21:33:55.441Z,23.93
2023-04-16T21:36:26.459Z,24.40
2023-04-16T21:38:54.545Z,24.70
2023-04-16T21:41:23.527Z,25.90
2023-04-16T21:43:51.347Z,23.57
2023-04-16T21:46:19.970Z,25.07
2023-04-16T21:48:48.430Z,23.50
2023-04-16T21:51:16.318Z,24.93
2023-04-16T21:53:44.236Z,22.70
2023-04-16T21:56:11.917Z,22.50
2023-04-16T21:58:41.273Z,23.10
2023-04-16T22:01:10.967Z,23.00
2023-04-16T22:03:40.355Z,24.20
2023-04-16T22:06:08.935Z,24.57
2023-04-16T22:08:36.798Z,24.13
2023-04-16T22:11:04.464Z,25.23
2023-04-16T22:13:33.154Z,23.83
2023-04-16T22:18:51.666Z,24.70
2023-04-16T22:21:19.689Z,23.73
2023-04-16T22:23:47.730Z,23.70
2023-04-16T22:26:15.600Z,23.53
2023-04-16T22:28:43.426Z,23.33
2023-04-16T22:31:12.775Z,23.10
2023-04-16T22:33:40.860Z,23.37
2023-04-16T22:36:08.840Z,24.07
2023-04-16T22:38:37.934Z,23.30
2023-04-16T22:41:05.821Z,23.80
2023-04-16T22:43:35.018Z,24.23
2023-04-16T22:46:04.445Z,25.60
2023-04-16T22:48:36.352Z,25.27
2023-04-16T22:51:04.354Z,25.23
2023-04-16T22:53:32.308Z,23.20
2023-04-16T22:56:03.035Z,24.80
2023-04-16T22:58:30.840Z,24.23
2023-04-16T23:00:59.448Z,24.03
2023-04-16T23:03:27.741Z,24.70
2023-04-16T23:05:56.929Z,25.03
2023-04-16T23:08:24.611Z,26.33
2023-04-16T23:10:53.239Z,26.03
2023-04-16T23:13:20.924Z,24.60
2023-04-16T23:15:48.754Z,25.20
2023-04-16T23:18:17.031Z,26.67
2023-04-16T23:20:44.685Z,24.00
2023-04-16T23:23:13.894Z,25.60
2023-04-16T23:25:42.121Z,24.87
2023-04-16T23:28:09.977Z,25.03
2023-04-16T23:30:37.760Z,26.03
2023-04-16T23:33:05.574Z,29.30
2023-04-16T23:35:33.476Z,24.80
2023-04-16T23:38:01.219Z,25.90
2023-04-16T23:40:30.691Z,25.20
2023-04-16T23:42:58.535Z,25.10
2023-04-16T23:45:44.473Z,25.90
2023-04-16T23:48:12.277Z,24.40
2023-04-16T23:50:40.002Z,25.10
2023-04-16T23:53:08.185Z,25.67
2023-04-16T23:55:37.256Z,33.00
2023-04-16T23:58:05.232Z,24.47
